Aeroporto :
LOGIN :

Iscrizione | Disclaimer

   EN    FR    IT 

 










Sommario :    VFR   VFR Marginale   IFR   IFR Intensivo   IFR Molto Intensivo
Visibilità : 
Base nubi : 
>= 8 km
>= 3000ft
5 / 8 km
1000 / 3000 ft
1500m / 5 km
500 / 1000 ft
800 / 1500m
200 / 500 ft
< 800m
< 200 ft
Simboli :   Temporali  Nebbia  Neve Forte  Precipitazioni Forti  Vento > 20 kt
SIGMETs :   Varie  Temporali  Ghiacco  Turbolenza  Onda orograficha  Ceneri Vulcaniche






- Altitudine del aeroporto : 645 ft
- Codice IATA : DLE


LFGJ - Dole Tavaux

ULTIMO METAR :
  • 050830Z AUTO 20013KT 9999 BKN009/// BKN018/// OVC023/// ///TCU 04/02 Q1005 TEMPO BKN013

METARs OBSOLETI :
  • 050800Z AUTO 19010KT 9999 FEW025/// BKN046/// BKN054/// ///TCU 03/02 Q1005 TEMPO BKN013
  • 050730Z AUTO 19009KT 9999 FEW044 SCT054 BKN068 03/02 Q1005 TEMPO BKN013
  • 050700Z AUTO 18009KT 9999 FEW019 BKN056 BKN066 03/02 Q1005 TEMPO BKN013
  • 050630Z AUTO 19010KT 9999 BKN019 BKN027 OVC035 03/02 Q1005 TEMPO BKN013
  • 050600Z AUTO 19009KT 9999 SCT019 BKN036 BKN066 03/02 Q1005
  • 050530Z AUTO 19009KT 9999 BKN023 BKN031 03/02 Q1005

TAF TAF LFGJ
Valido dal 05 a 06 ore il 05 a 15 ore UTC


050500Z 0506/0515 21010KT 9999 BKN020
TEMPO 0506/0513 -SHRA BKN013
BECMG 0513/0515 -RA BKN013



MetMap, La meteo Aeronautica in un colpo d'occhio ! - Copyright ORBIFLY Dicembre 2007 - Disclaimer

ORBIFLY MET'MAP TEAM :

Programmazione e sviluppo : Alexandra Zaïnal
Concezione : Baudouin d'Aumeries
Aiuto per la programmazione : Marc-Olivier Méhu
Supporto tecnico e logistico : Manuel Goepfert
Aiuto per la traduzione : Arnaldo La Scala

Contatto : metmap@orbifly.com




FONTI E CREDITI :

   NOAA